Terminal Aerodrome Forecast
Issued by NWS

Home | Current Version | Previous Version | Text Only | Print | Product List | Glossary On
Versions: 1 2 3 4 5 6 7 8 9 10 11 12
000
FTUS45 KABQ 261500 AAA
TAFLVS
TAF AMD
KLVS 261545Z 2616/2712 12008KT 2SM -SN OVC015
      TEMPO 2616/2620 1/2SM SN FZFG OVC004
     FM262000 16011KT 3/4SM -SN OVC007
      TEMPO 2620/2623 1/2SM SN FZFG OVC004
     FM270000 19008KT P6SM FEW025 SCT070
     FM270600 VRB05KT P6SM VCFG SCT005=

USA.gov is the U.S. government's official web portal to all federal, state and local government web resources and services.